createdAt,value
2019-02-12T00:00:03.889Z,71.59
2019-02-12T00:01:03.974Z,70.75
2019-02-12T00:02:03.862Z,70.65
2019-02-12T00:03:03.857Z,71.48
2019-02-12T00:04:03.839Z,71.38
2019-02-12T00:05:03.896Z,70.65
2019-02-12T00:06:03.871Z,70.86
2019-02-12T00:07:03.839Z,70.97
2019-02-12T00:08:03.806Z,69.82
2019-02-12T00:09:03.800Z,70.65
2019-02-12T00:10:03.786Z,70.86
2019-02-12T00:11:03.768Z,70.75
2019-02-12T00:12:03.811Z,70.44
2019-02-12T00:13:03.759Z,71.69
2019-02-12T00:14:03.741Z,70.54
2019-02-12T00:15:03.741Z,70.75
2019-02-12T00:16:03.710Z,70.13
2019-02-12T00:17:03.708Z,70.79
2019-02-12T00:18:03.743Z,70.97
2019-02-12T00:19:03.713Z,71.59
2019-02-12T00:20:03.696Z,71.28
2019-02-12T00:21:08.975Z,71.17
2019-02-12T00:22:04.654Z,70.89
2019-02-12T00:23:03.659Z,71.28
2019-02-12T00:24:03.660Z,71.48
2019-02-12T00:25:03.633Z,71.59
2019-02-12T00:26:03.611Z,72.00
2019-02-12T00:27:03.604Z,71.59
2019-02-12T00:28:03.582Z,72.00
2019-02-12T00:29:03.578Z,71.80
2019-02-12T00:30:03.617Z,71.69
2019-02-12T00:31:03.561Z,72.11
2019-02-12T00:32:03.592Z,72.00
2019-02-12T00:33:03.570Z,71.90
2019-02-12T00:34:03.522Z,72.66
2019-02-12T00:35:03.515Z,72.63
2019-02-12T00:36:03.500Z,72.52
2019-02-12T00:37:03.541Z,72.63
2019-02-12T00:38:03.517Z,72.86
2019-02-12T00:39:03.462Z,72.63
2019-02-12T00:40:03.459Z,72.97
2019-02-12T00:41:03.450Z,73.39
2019-02-12T00:42:03.446Z,73.39
2019-02-12T00:43:03.485Z,73.60
2019-02-12T00:44:03.420Z,73.60
2019-02-12T00:45:03.480Z,73.60
2019-02-12T00:46:03.395Z,74.35
2019-02-12T00:47:03.412Z,74.53
2019-02-12T00:48:03.373Z,74.11
2019-02-12T00:49:03.372Z,74.88
2019-02-12T00:50:03.393Z,74.88
2019-02-12T00:51:03.401Z,75.29
2019-02-12T00:52:03.339Z,75.60
2019-02-12T00:53:03.319Z,75.26
2019-02-12T00:54:03.321Z,75.60
2019-02-12T00:55:03.294Z,75.36
2019-02-12T00:56:03.289Z,75.60
2019-02-12T00:57:03.319Z,75.50
2019-02-12T00:58:03.270Z,75.81
2019-02-12T00:59:03.260Z,75.29
2019-02-12T01:00:04.764Z,76.12
2019-02-12T01:01:03.245Z,76.12
2019-02-12T01:02:03.289Z,75.81
2019-02-12T01:03:03.254Z,76.43
2019-02-12T01:04:03.190Z,75.81
2019-02-12T01:05:04.408Z,76.57
2019-02-12T01:06:03.197Z,76.64
2019-02-12T01:07:03.199Z,76.47
2019-02-12T01:08:03.148Z,76.33
2019-02-12T01:09:03.211Z,76.37
2019-02-12T01:10:03.134Z,76.26
2019-02-12T01:11:03.119Z,76.89
2019-02-12T01:12:03.116Z,76.57
2019-02-12T01:13:03.107Z,76.78
2019-02-12T01:14:03.087Z,76.78
2019-02-12T01:15:03.146Z,77.16
2019-02-12T01:16:03.065Z,76.23
2019-02-12T01:17:03.112Z,76.23
2019-02-12T01:18:03.062Z,76.12
2019-02-12T01:19:03.076Z,76.33
2019-02-12T01:20:03.019Z,76.43
2019-02-12T01:21:03.014Z,76.54
2019-02-12T01:22:03.004Z,76.51
2019-02-12T01:23:03.012Z,76.19
2019-02-12T01:24:02.988Z,76.33
2019-02-12T01:25:03.041Z,76.33
2019-02-12T01:26:02.964Z,76.29
2019-02-12T01:27:02.939Z,76.19
2019-02-12T01:28:02.939Z,76.29
2019-02-12T01:29:02.936Z,76.33
2019-02-12T01:30:02.996Z,76.40
2019-02-12T01:31:02.945Z,76.40
2019-02-12T01:32:02.904Z,76.29
2019-02-12T01:33:02.885Z,76.40
2019-02-12T01:34:02.890Z,76.40
2019-02-12T01:35:02.880Z,76.40
2019-02-12T01:36:03.108Z,76.19
2019-02-12T01:37:02.830Z,76.40
2019-02-12T01:38:02.838Z,76.61
2019-02-12T01:39:02.819Z,76.51
2019-02-12T01:40:02.820Z,76.51
2019-02-12T01:41:02.790Z,76.09
2019-02-12T01:42:02.870Z,76.29
2019-02-12T01:43:02.766Z,76.51
2019-02-12T01:44:02.759Z,76.51
2019-02-12T01:45:02.762Z,76.51
2019-02-12T01:46:02.764Z,76.40
2019-02-12T01:47:02.737Z,76.40
2019-02-12T01:48:02.782Z,76.40
2019-02-12T01:49:02.717Z,76.29
2019-02-12T01:50:02.695Z,76.51
2019-02-12T01:51:02.693Z,75.67
2019-02-12T01:52:02.682Z,75.67
2019-02-12T01:53:02.672Z,75.98
2019-02-12T01:54:02.723Z,75.88
2019-02-12T01:55:02.659Z,75.64
2019-02-12T01:56:02.634Z,75.88
2019-02-12T01:57:02.631Z,75.74
2019-02-12T01:58:02.610Z,75.88
2019-02-12T01:59:02.607Z,75.98
2019-02-12T02:00:02.644Z,75.67
2019-02-12T02:01:02.584Z,76.40
2019-02-12T02:02:02.579Z,75.95
2019-02-12T02:03:02.563Z,75.36
2019-02-12T02:04:02.552Z,75.88
2019-02-12T02:05:02.603Z,75.57
2019-02-12T02:06:02.529Z,75.74
2019-02-12T02:07:02.524Z,75.32
2019-02-12T02:08:02.512Z,75.43
2019-02-12T02:09:02.487Z,75.67
2019-02-12T02:10:02.480Z,75.64
2019-02-12T02:11:02.501Z,75.32
2019-02-12T02:12:02.450Z,75.64
2019-02-12T02:13:02.510Z,75.74
2019-02-12T02:14:02.445Z,75.32
2019-02-12T02:15:02.425Z,74.80
2019-02-12T02:16:02.501Z,74.95
2019-02-12T02:17:02.396Z,74.95
2019-02-12T02:18:02.424Z,74.80
2019-02-12T02:19:02.380Z,74.63
2019-02-12T02:20:02.384Z,75.78
2019-02-12T02:21:02.360Z,75.46
2019-02-12T02:22:02.398Z,75.67
2019-02-12T02:23:09.184Z,75.92
2019-02-12T02:24:02.332Z,76.51
2019-02-12T02:25:02.330Z,76.09
2019-02-12T02:26:02.312Z,75.26
2019-02-12T02:27:02.298Z,75.15
2019-02-12T02:28:02.356Z,74.95
2019-02-12T02:29:02.276Z,74.74
2019-02-12T02:30:02.317Z,74.01
2019-02-12T02:31:02.246Z,74.11
2019-02-12T02:32:02.285Z,74.32
2019-02-12T02:33:02.240Z,74.22
2019-02-12T02:34:02.225Z,74.11
2019-02-12T02:35:02.204Z,73.80
2019-02-12T02:36:02.431Z,74.11
2019-02-12T02:37:02.186Z,73.87
2019-02-12T02:38:02.261Z,73.91
2019-02-12T02:39:02.164Z,73.87
2019-02-12T02:40:02.180Z,73.97
2019-02-12T02:41:02.144Z,74.74
2019-02-12T02:42:02.150Z,74.43
2019-02-12T02:43:02.145Z,74.08
2019-02-12T02:44:02.165Z,73.97
2019-02-12T02:45:02.117Z,73.97
2019-02-12T02:46:02.100Z,73.87
2019-02-12T02:47:02.087Z,73.87
2019-02-12T02:48:02.065Z,73.87
2019-02-12T02:49:02.056Z,74.80
2019-02-12T02:50:03.418Z,75.01
2019-02-12T02:51:02.062Z,74.74
2019-02-12T02:52:02.020Z,75.46
2019-02-12T02:53:02.013Z,75.57
2019-02-12T02:54:02.055Z,75.57
2019-02-12T02:55:02.002Z,75.57
2019-02-12T02:56:01.978Z,75.64
2019-02-12T02:57:01.981Z,75.57
2019-02-12T02:58:01.967Z,75.32
2019-02-12T02:59:01.949Z,75.64
2019-02-12T03:00:01.993Z,75.32
2019-02-12T03:01:01.922Z,75.32
2019-02-12T03:02:01.911Z,75.43
2019-02-12T03:03:01.915Z,75.46
2019-02-12T03:04:01.911Z,75.54
2019-02-12T03:05:01.978Z,75.67
2019-02-12T03:06:01.872Z,75.36
2019-02-12T03:07:01.868Z,75.64
2019-02-12T03:08:01.855Z,75.85
2019-02-12T03:09:01.854Z,75.95
2019-02-12T03:10:01.843Z,76.16
2019-02-12T03:11:01.867Z,76.16
2019-02-12T03:12:01.810Z,76.16
2019-02-12T03:13:01.819Z,76.16
2019-02-12T03:14:01.791Z,75.64
2019-02-12T03:15:01.822Z,75.74
2019-02-12T03:16:01.771Z,75.64
2019-02-12T03:17:01.758Z,76.47
2019-02-12T03:18:01.763Z,75.74
2019-02-12T03:19:01.728Z,76.06
2019-02-12T03:20:01.743Z,75.95
2019-02-12T03:21:01.786Z,75.85
2019-02-12T03:22:03.782Z,76.06
2019-02-12T03:23:01.691Z,76.37
2019-02-12T03:24:01.675Z,76.51
2019-02-12T03:25:01.674Z,76.37
2019-02-12T03:26:01.772Z,76.47
2019-02-12T03:27:01.665Z,76.19
2019-02-12T03:28:01.637Z,76.06
2019-02-12T03:29:01.707Z,76.72
2019-02-12T03:30:01.642Z,77.03
2019-02-12T03:31:01.625Z,76.92
2019-02-12T03:32:01.638Z,77.03
2019-02-12T03:33:01.613Z,77.13
2019-02-12T03:34:01.600Z,77.55
2019-02-12T03:35:01.584Z,77.58
2019-02-12T03:36:01.553Z,77.58
2019-02-12T03:37:01.544Z,77.79
2019-02-12T03:38:01.580Z,77.69
2019-02-12T03:39:01.528Z,78.20
2019-02-12T03:40:01.515Z,78.55
2019-02-12T03:41:01.515Z,78.55
2019-02-12T03:42:01.474Z,78.66
2019-02-12T03:43:01.480Z,78.97
2019-02-12T03:44:01.516Z,78.66
2019-02-12T03:45:01.455Z,79.00
2019-02-12T03:46:01.513Z,79.32
2019-02-12T03:47:01.434Z,79.32
2019-02-12T03:48:01.443Z,79.21
2019-02-12T03:49:01.426Z,79.32
2019-02-12T03:50:01.419Z,80.05
2019-02-12T03:51:01.375Z,79.83
2019-02-12T03:52:01.429Z,80.46
2019-02-12T03:53:01.369Z,80.57
2019-02-12T03:54:01.362Z,80.36
2019-02-12T03:55:01.349Z,80.29
2019-02-12T03:56:01.333Z,80.67
2019-02-12T03:57:01.333Z,80.91
2019-02-12T03:58:01.394Z,80.40
2019-02-12T03:59:01.294Z,80.81
2019-02-12T04:00:01.306Z,80.40
2019-02-12T04:01:01.289Z,80.19
2019-02-12T04:02:01.339Z,80.08
2019-02-12T04:03:01.300Z,80.19
2019-02-12T04:04:01.330Z,80.60
2019-02-12T04:05:01.506Z,80.60
2019-02-12T04:06:01.233Z,80.19
2019-02-12T04:07:01.216Z,80.40
2019-02-12T04:08:01.202Z,80.60
2019-02-12T04:09:01.277Z,81.02
2019-02-12T04:10:01.276Z,80.50
2019-02-12T04:11:01.215Z,80.91
2019-02-12T04:12:01.159Z,80.71
2019-02-12T04:13:01.151Z,80.91
2019-02-12T04:14:01.156Z,81.16
2019-02-12T04:15:01.202Z,81.37
2019-02-12T04:16:01.107Z,81.43
2019-02-12T04:17:01.120Z,81.02
2019-02-12T04:18:01.109Z,81.37
2019-02-12T04:19:01.110Z,81.47
2019-02-12T04:20:01.104Z,81.26
2019-02-12T04:21:01.124Z,81.79
2019-02-12T04:22:01.063Z,81.75
2019-02-12T04:23:01.101Z,81.43
2019-02-12T04:24:01.027Z,81.68
2019-02-12T04:25:01.025Z,81.68
2019-02-12T04:26:01.019Z,81.58
2019-02-12T04:27:01.029Z,81.89
2019-02-12T04:28:00.990Z,81.54
2019-02-12T04:29:00.995Z,81.58
2019-02-12T04:30:01.000Z,82.20
2019-02-12T04:31:00.948Z,82.10
2019-02-12T04:32:00.956Z,81.99
2019-02-12T04:33:00.931Z,82.20
2019-02-12T04:34:00.921Z,82.20
2019-02-12T04:35:00.919Z,82.06
2019-02-12T04:36:00.964Z,82.10
2019-02-12T04:37:00.905Z,81.99
2019-02-12T04:38:00.876Z,81.79
2019-02-12T04:39:00.873Z,81.85
2019-02-12T04:40:00.854Z,81.54
2019-02-12T04:41:00.837Z,81.79
2019-02-12T04:42:00.902Z,81.65
2019-02-12T04:43:00.910Z,81.99
2019-02-12T04:44:00.813Z,81.54
2019-02-12T04:45:00.825Z,81.43
2019-02-12T04:46:00.795Z,81.47
2019-02-12T04:47:00.855Z,81.23
2019-02-12T04:48:00.814Z,81.23
2019-02-12T04:49:00.784Z,81.54
2019-02-12T04:50:00.801Z,81.47
2019-02-12T04:51:00.737Z,81.75
2019-02-12T04:52:00.727Z,81.89
2019-02-12T04:53:00.716Z,81.68
2019-02-12T04:54:00.786Z,82.10
2019-02-12T04:55:00.694Z,81.75
2019-02-12T04:56:00.683Z,81.65
2019-02-12T04:57:00.674Z,81.85
2019-02-12T04:58:00.708Z,82.10
2019-02-12T04:59:00.652Z,81.58
2019-02-12T05:00:00.794Z,81.75
2019-02-12T05:01:00.620Z,81.89
2019-02-12T05:02:00.632Z,81.99
2019-02-12T05:03:00.627Z,81.68
2019-02-12T05:04:00.591Z,82.10
2019-02-12T05:05:00.636Z,81.99
2019-02-12T05:06:00.592Z,82.10
2019-02-12T05:07:00.591Z,81.96
2019-02-12T05:08:00.553Z,81.54
2019-02-12T05:09:00.540Z,82.06
2019-02-12T05:10:00.752Z,82.17
2019-02-12T05:11:00.530Z,82.17
2019-02-12T05:12:00.539Z,81.96
2019-02-12T05:13:00.502Z,81.96
2019-02-12T05:14:00.493Z,81.85
2019-02-12T05:15:00.479Z,81.75
2019-02-12T05:16:00.518Z,81.65
2019-02-12T05:17:00.493Z,81.85
2019-02-12T05:18:00.492Z,81.96
2019-02-12T05:19:00.449Z,81.65
2019-02-12T05:20:00.430Z,81.96
2019-02-12T05:21:00.422Z,82.06
2019-02-12T05:22:00.394Z,82.17
2019-02-12T05:23:00.400Z,82.17
2019-02-12T05:24:00.444Z,82.48
2019-02-12T05:25:00.610Z,82.58
2019-02-12T05:26:00.356Z,82.48
2019-02-12T05:27:00.349Z,82.68
2019-02-12T05:28:00.354Z,82.48
2019-02-12T05:29:01.214Z,82.68
2019-02-12T05:30:00.377Z,82.79
2019-02-12T05:31:00.319Z,82.58
2019-02-12T05:32:00.288Z,82.48
2019-02-12T05:33:00.294Z,82.58
2019-02-12T05:34:00.302Z,82.89
2019-02-12T05:35:00.313Z,82.79
2019-02-12T05:36:00.311Z,82.93
2019-02-12T05:37:00.232Z,83.00
2019-02-12T05:38:00.237Z,83.00
2019-02-12T05:39:00.212Z,82.79
2019-02-12T05:40:00.348Z,82.68
2019-02-12T05:41:00.195Z,83.00
2019-02-12T05:42:00.291Z,83.42
2019-02-12T05:43:00.181Z,83.35
2019-02-12T05:44:00.196Z,83.42
2019-02-12T05:45:00.239Z,83.62
2019-02-12T05:46:00.147Z,83.45
2019-02-12T05:47:00.141Z,83.52
2019-02-12T05:48:00.210Z,83.76
2019-02-12T05:49:00.110Z,83.42
2019-02-12T05:50:00.380Z,83.10
2019-02-12T05:51:00.083Z,83.37
2019-02-12T05:52:00.099Z,82.79
2019-02-12T05:53:00.062Z,82.86
2019-02-12T05:54:00.126Z,82.65
2019-02-12T05:55:00.409Z,82.65
2019-02-12T05:56:00.052Z,82.40
2019-02-12T05:57:00.027Z,82.09
2019-02-12T05:58:00.018Z,81.88
2019-02-12T05:59:00.059Z,81.77
2019-02-12T06:00:00.012Z,81.57
2019-02-12T06:01:00.115Z,81.98
2019-02-12T06:01:59.984Z,81.67
2019-02-12T06:02:59.956Z,81.98
2019-02-12T06:03:59.990Z,81.57
2019-02-12T06:04:59.966Z,81.77
2019-02-12T06:05:59.981Z,81.84
2019-02-12T06:06:59.919Z,81.32
2019-02-12T06:07:59.926Z,81.57
2019-02-12T06:08:59.898Z,81.63
2019-02-12T06:09:59.902Z,81.67
2019-02-12T06:10:59.885Z,81.32
2019-02-12T06:11:59.919Z,81.01
2019-02-12T06:12:59.931Z,81.22
2019-02-12T06:13:59.849Z,80.80
2019-02-12T06:14:59.847Z,80.80
2019-02-12T06:15:59.861Z,81.01
2019-02-12T06:16:59.843Z,80.91
2019-02-12T06:17:59.883Z,80.80
2019-02-12T06:19:00.720Z,80.70
2019-02-12T06:19:59.781Z,80.80
2019-02-12T06:20:59.765Z,80.80
2019-02-12T06:21:59.821Z,80.49
2019-02-12T06:23:03.920Z,80.29
2019-02-12T06:23:59.734Z,80.15
2019-02-12T06:24:59.813Z,79.55
2019-02-12T06:26:00.240Z,79.94
2019-02-12T06:26:59.776Z,79.62
2019-02-12T06:27:59.681Z,79.41
2019-02-12T06:28:59.682Z,79.41
2019-02-12T06:29:59.672Z,79.62
2019-02-12T06:30:59.657Z,79.41
2019-02-12T06:31:59.643Z,79.41
2019-02-12T06:33:07.194Z,79.31
2019-02-12T06:34:00.618Z,79.31
2019-02-12T06:34:59.627Z,80.04
2019-02-12T06:35:59.606Z,78.79
2019-02-12T06:36:59.593Z,78.79
2019-02-12T06:37:59.698Z,78.48
2019-02-12T06:38:59.576Z,78.58
2019-02-12T06:39:59.624Z,78.62
2019-02-12T06:40:59.554Z,79.24
2019-02-12T06:41:59.542Z,78.89
2019-02-12T06:42:59.601Z,78.41
2019-02-12T06:43:59.552Z,78.93
2019-02-12T06:44:59.510Z,78.17
2019-02-12T06:45:59.497Z,78.06
2019-02-12T06:46:59.495Z,77.55
2019-02-12T06:47:59.485Z,77.75
2019-02-12T06:48:59.549Z,77.65
2019-02-12T06:49:59.457Z,78.27
2019-02-12T06:50:59.456Z,77.55
2019-02-12T06:51:59.428Z,77.96
2019-02-12T06:52:59.513Z,77.96
2019-02-12T06:53:59.414Z,77.86
2019-02-12T06:54:59.400Z,78.17
2019-02-12T06:55:59.522Z,77.96
2019-02-12T06:56:59.401Z,77.96
2019-02-12T06:57:59.369Z,77.65
2019-02-12T06:58:59.356Z,77.55
2019-02-12T06:59:59.369Z,77.61
2019-02-12T07:00:59.339Z,77.75
2019-02-12T07:01:59.422Z,77.55
2019-02-12T07:02:59.310Z,77.40
2019-02-12T07:03:59.290Z,77.30
2019-02-12T07:04:59.287Z,77.34
2019-02-12T07:05:59.270Z,77.20
2019-02-12T07:06:59.303Z,77.51
2019-02-12T07:07:59.340Z,77.30
2019-02-12T07:08:59.253Z,77.72
2019-02-12T07:09:59.246Z,77.82
2019-02-12T07:10:59.215Z,76.26
2019-02-12T07:11:59.233Z,76.06
2019-02-12T07:12:59.219Z,76.78
2019-02-12T07:13:59.299Z,77.09
2019-02-12T07:14:59.266Z,76.57
2019-02-12T07:15:59.169Z,76.16
2019-02-12T07:16:59.156Z,76.33
2019-02-12T07:17:59.155Z,76.33
2019-02-12T07:18:59.146Z,76.23
2019-02-12T07:19:59.205Z,76.12
2019-02-12T07:20:59.112Z,76.23
2019-02-12T07:21:59.101Z,75.71
2019-02-12T07:22:59.150Z,75.92
2019-02-12T07:23:59.079Z,75.71
2019-02-12T07:24:59.148Z,75.71
2019-02-12T07:25:59.058Z,75.71
2019-02-12T07:26:59.054Z,75.40
2019-02-12T07:27:59.034Z,76.02
2019-02-12T07:28:59.027Z,75.50
2019-02-12T07:29:59.048Z,75.81
2019-02-12T07:30:59.073Z,75.78
2019-02-12T07:31:58.999Z,75.98
2019-02-12T07:32:59.009Z,75.36
2019-02-12T07:33:58.968Z,74.84
2019-02-12T07:34:58.977Z,75.67
2019-02-12T07:35:58.953Z,74.63
2019-02-12T07:36:59.020Z,74.43
2019-02-12T07:37:59.027Z,73.98
2019-02-12T07:38:58.922Z,73.88
2019-02-12T07:39:58.937Z,74.01
2019-02-12T07:40:58.901Z,73.88
2019-02-12T07:41:59.150Z,73.98
2019-02-12T07:42:58.937Z,73.46
2019-02-12T07:43:58.867Z,73.46
2019-02-12T07:44:58.860Z,73.36
2019-02-12T07:45:58.867Z,73.32
2019-02-12T07:46:58.870Z,73.01
2019-02-12T07:47:58.838Z,73.32
2019-02-12T07:48:58.800Z,72.94
2019-02-12T07:49:59.039Z,73.43
2019-02-12T07:50:58.785Z,73.32
2019-02-12T07:51:58.776Z,73.43
2019-02-12T07:52:58.871Z,73.32
2019-02-12T07:54:13.750Z,72.91
2019-02-12T07:54:58.748Z,72.77
2019-02-12T07:55:58.825Z,72.39
2019-02-12T07:56:58.743Z,72.39
2019-02-12T07:57:58.714Z,72.80
2019-02-12T07:58:58.702Z,73.32
2019-02-12T07:59:58.699Z,73.25
2019-02-12T08:00:58.754Z,73.22
2019-02-12T08:01:58.670Z,73.43
2019-02-12T08:02:58.662Z,73.32
2019-02-12T08:03:58.701Z,73.43
2019-02-12T08:04:58.639Z,73.01
2019-02-12T08:05:58.686Z,72.98
2019-02-12T08:06:58.622Z,72.56
2019-02-12T08:07:58.604Z,72.15
2019-02-12T08:08:58.586Z,71.59
2019-02-12T08:09:58.578Z,71.28
2019-02-12T08:10:58.581Z,71.28
2019-02-12T08:11:58.629Z,70.46
2019-02-12T08:12:58.549Z,70.56
2019-02-12T08:13:58.547Z,70.76
2019-02-12T08:14:58.562Z,70.87
2019-02-12T08:15:58.563Z,70.87
2019-02-12T08:16:58.574Z,71.11
2019-02-12T08:17:58.497Z,71.53
2019-02-12T08:18:58.497Z,71.42
2019-02-12T08:19:58.488Z,72.15
2019-02-12T08:20:58.461Z,72.18
2019-02-12T08:21:58.458Z,72.49
2019-02-12T08:22:58.500Z,72.70
2019-02-12T08:23:58.435Z,72.60
2019-02-12T08:24:58.417Z,72.80
2019-02-12T08:25:58.430Z,71.97
2019-02-12T08:26:58.392Z,72.18
2019-02-12T08:27:58.401Z,72.28
2019-02-12T08:28:58.457Z,71.66
2019-02-12T08:29:58.371Z,71.84
2019-02-12T08:30:58.366Z,71.73
2019-02-12T08:31:58.359Z,71.63
2019-02-12T08:32:58.345Z,71.28
2019-02-12T08:33:58.341Z,71.53
2019-02-12T08:34:58.376Z,71.01
2019-02-12T08:35:58.300Z,71.53
2019-02-12T08:36:58.294Z,71.01
2019-02-12T08:37:58.284Z,70.67
2019-02-12T08:38:58.271Z,70.53
2019-02-12T08:39:58.271Z,69.16
2019-02-12T08:40:58.325Z,65.24
2019-02-12T08:41:58.266Z,63.17
2019-02-12T08:42:58.228Z,57.62
2019-02-12T08:43:58.223Z,57.31
2019-02-12T08:44:58.228Z,60.31
2019-02-12T08:45:58.215Z,62.46
2019-02-12T08:46:58.249Z,61.63
2019-02-12T08:47:58.252Z,54.00
2019-02-12T08:48:58.162Z,47.54
2019-02-12T08:49:58.138Z,42.74
2019-02-12T08:50:58.135Z,43.12
2019-02-12T08:51:58.155Z,39.89
2019-02-12T08:52:58.160Z,41.63
2019-02-12T08:53:58.105Z,44.51
2019-02-12T08:54:58.092Z,42.04
2019-02-12T08:55:58.084Z,45.65
2019-02-12T08:56:58.136Z,48.36
2019-02-12T08:57:58.113Z,48.35
2019-02-12T08:58:58.055Z,43.67
2019-02-12T08:59:58.036Z,39.98
2019-02-12T09:00:58.031Z,36.72
2019-02-12T09:01:58.017Z,35.19
2019-02-12T09:02:58.103Z,39.00
2019-02-12T09:03:57.989Z,42.21
2019-02-12T09:04:58.041Z,44.12
2019-02-12T09:05:58.039Z,43.30
2019-02-12T09:06:57.953Z,39.67
2019-02-12T09:07:57.948Z,37.40
2019-02-12T09:08:57.941Z,40.09
2019-02-12T09:09:57.931Z,44.12
2019-02-12T09:10:57.909Z,47.42
2019-02-12T09:11:58.001Z,48.51
2019-02-12T09:12:57.912Z,42.10
2019-02-12T09:13:57.893Z,38.45
2019-02-12T09:14:57.888Z,38.52
2019-02-12T09:15:57.879Z,34.99
2019-02-12T09:16:57.858Z,35.44
2019-02-12T09:17:58.407Z,34.99
2019-02-12T09:18:58.145Z,34.66
2019-02-12T09:19:58.114Z,35.24
2019-02-12T09:20:58.182Z,37.71
2019-02-12T09:21:58.085Z,34.95
2019-02-12T09:22:58.055Z,34.70
2019-02-12T09:24:00.404Z,37.34
2019-02-12T09:24:57.763Z,34.05
2019-02-12T09:25:57.770Z,32.20
2019-02-12T09:26:57.751Z,34.53
2019-02-12T09:27:57.737Z,34.70
2019-02-12T09:28:57.805Z,34.05
2019-02-12T09:29:57.707Z,35.06
2019-02-12T09:30:57.687Z,38.53
2019-02-12T09:31:57.685Z,40.23
2019-02-12T09:32:57.690Z,43.71
2019-02-12T09:33:57.667Z,45.84
2019-02-12T09:34:57.715Z,44.67
2019-02-12T09:35:57.641Z,41.17
2019-02-12T09:36:57.635Z,36.34
2019-02-12T09:37:57.629Z,35.26
2019-02-12T09:38:57.629Z,38.76
2019-02-12T09:39:57.670Z,42.85
2019-02-12T09:40:57.587Z,44.26
2019-02-12T09:41:57.584Z,42.65
2019-02-12T09:42:57.563Z,40.55
2019-02-12T09:43:57.579Z,43.61
2019-02-12T09:44:57.570Z,45.92
2019-02-12T09:45:57.608Z,47.83
2019-02-12T09:46:57.538Z,48.98
2019-02-12T09:47:57.511Z,49.56
2019-02-12T09:48:57.524Z,49.24
2019-02-12T09:49:57.497Z,45.76
2019-02-12T09:50:57.522Z,45.86
2019-02-12T09:51:57.555Z,43.82
2019-02-12T09:52:57.453Z,46.04
2019-02-12T09:53:57.445Z,47.03
2019-02-12T09:54:57.448Z,48.35
2019-02-12T09:55:57.440Z,49.11
2019-02-12T09:56:57.409Z,51.01
2019-02-12T09:57:57.471Z,51.55
2019-02-12T09:58:57.387Z,51.78
2019-02-12T09:59:57.384Z,51.89
2019-02-12T10:00:57.385Z,53.25
2019-02-12T10:01:57.355Z,52.89
2019-02-12T10:02:57.417Z,51.07
2019-02-12T10:03:57.342Z,51.20
2019-02-12T10:04:57.314Z,50.99
2019-02-12T10:05:57.311Z,50.89
2019-02-12T10:06:57.304Z,50.40
2019-02-12T10:07:57.360Z,50.60
2019-02-12T10:08:57.817Z,49.63
2019-02-12T10:09:57.264Z,48.54
2019-02-12T10:10:57.263Z,48.98
2019-02-12T10:11:57.267Z,49.72
2019-02-12T10:12:57.238Z,48.04
2019-02-12T10:13:57.231Z,47.60
2019-02-12T10:14:57.363Z,49.80
2019-02-12T10:15:57.211Z,50.03
2019-02-12T10:16:57.209Z,49.76
2019-02-12T10:17:57.187Z,47.02
2019-02-12T10:18:57.168Z,46.91
2019-02-12T10:19:57.155Z,47.74
2019-02-12T10:20:57.216Z,46.69
2019-02-12T10:21:57.126Z,47.63
2019-02-12T10:22:57.128Z,47.66
2019-02-12T10:23:57.183Z,47.66
2019-02-12T10:24:57.161Z,46.03
2019-02-12T10:25:57.176Z,37.48
2019-02-12T10:26:57.140Z,32.06
2019-02-12T10:27:57.078Z,31.88
2019-02-12T10:28:57.080Z,34.34
2019-02-12T10:29:57.050Z,36.27
2019-02-12T10:30:57.046Z,39.53
2019-02-12T10:31:57.075Z,40.70
2019-02-12T10:32:57.048Z,39.73
2019-02-12T10:33:56.989Z,40.16
2019-02-12T10:34:56.991Z,41.24
2019-02-12T10:35:57.056Z,43.22
2019-02-12T10:36:56.968Z,42.61
2019-02-12T10:37:56.953Z,43.04
2019-02-12T10:38:56.955Z,43.91
2019-02-12T10:39:56.950Z,45.09
2019-02-12T10:40:56.926Z,46.32
2019-02-12T10:41:57.033Z,46.94
2019-02-12T10:42:56.891Z,46.56
2019-02-12T10:43:56.892Z,44.29
2019-02-12T10:44:56.884Z,44.26
2019-02-12T10:45:56.865Z,44.24
2019-02-12T10:46:56.917Z,44.26
2019-02-12T10:47:56.865Z,43.77
2019-02-12T10:48:56.853Z,44.53
2019-02-12T10:49:56.857Z,46.22
2019-02-12T10:50:56.803Z,45.52
2019-02-12T10:51:56.805Z,44.41
2019-02-12T10:52:56.860Z,44.74
2019-02-12T10:53:56.826Z,46.08
2019-02-12T10:54:56.761Z,45.64
2019-02-12T10:55:56.808Z,44.80
2019-02-12T10:56:56.825Z,44.37
2019-02-12T10:57:56.779Z,45.50
2019-02-12T10:58:56.832Z,44.71
2019-02-12T10:59:56.797Z,42.24
2019-02-12T11:00:56.702Z,38.65
2019-02-12T11:01:56.693Z,34.52
2019-02-12T11:02:56.711Z,31.02
2019-02-12T11:03:56.719Z,27.80
2019-02-12T11:04:56.733Z,26.23
2019-02-12T11:05:56.657Z,24.80
2019-02-12T11:06:56.638Z,23.88
2019-02-12T11:07:56.638Z,23.53
2019-02-12T11:08:56.614Z,22.53
2019-02-12T11:09:56.604Z,24.85
2019-02-12T11:10:56.644Z,27.80
2019-02-12T11:11:56.616Z,28.81
2019-02-12T11:12:56.571Z,29.64
2019-02-12T11:13:56.624Z,27.77
2019-02-12T11:14:56.565Z,28.01
2019-02-12T11:15:56.555Z,29.85
2019-02-12T11:16:56.531Z,32.88
2019-02-12T11:17:56.511Z,33.10
2019-02-12T11:18:56.501Z,32.30
2019-02-12T11:19:56.574Z,33.76
2019-02-12T11:20:56.485Z,34.62
2019-02-12T11:21:56.478Z,35.80
2019-02-12T11:22:56.486Z,35.49
2019-02-12T11:23:56.472Z,32.32
2019-02-12T11:24:56.441Z,32.79
2019-02-12T11:25:56.503Z,35.42
2019-02-12T11:26:56.421Z,37.81
2019-02-12T11:27:56.472Z,37.72
2019-02-12T11:28:56.399Z,37.65
2019-02-12T11:29:56.373Z,33.28
2019-02-12T11:30:56.380Z,30.64
2019-02-12T11:31:56.377Z,29.32
2019-02-12T11:32:56.356Z,30.71
2019-02-12T11:33:56.403Z,33.14
2019-02-12T11:34:56.388Z,35.75
2019-02-12T11:35:56.306Z,36.63
2019-02-12T11:36:56.309Z,39.37
2019-02-12T11:37:56.288Z,40.03
2019-02-12T11:38:56.315Z,40.88
2019-02-12T11:39:56.295Z,40.31
2019-02-12T11:40:56.343Z,41.49
2019-02-12T11:41:56.244Z,42.44
2019-02-12T11:42:56.245Z,43.09
2019-02-12T11:43:56.229Z,42.99
2019-02-12T11:44:56.224Z,44.04
2019-02-12T11:45:56.210Z,39.31
2019-02-12T11:46:56.249Z,34.47
2019-02-12T11:47:56.178Z,34.62
2019-02-12T11:48:56.162Z,36.34
2019-02-12T11:49:56.164Z,39.07
2019-02-12T11:50:56.157Z,40.75
2019-02-12T11:51:56.195Z,41.61
2019-02-12T11:52:56.776Z,43.79
2019-02-12T11:53:56.114Z,42.60
2019-02-12T11:54:56.104Z,42.42
2019-02-12T11:55:56.103Z,43.28
2019-02-12T11:56:56.112Z,39.86
2019-02-12T11:57:56.130Z,39.67
2019-02-12T11:58:56.061Z,38.56
2019-02-12T11:59:56.047Z,40.66
2019-02-12T12:00:56.052Z,41.23
2019-02-12T12:01:56.781Z,42.72
2019-02-12T12:02:56.079Z,43.38
2019-02-12T12:03:56.073Z,43.71
2019-02-12T12:04:56.055Z,44.45
2019-02-12T12:05:55.985Z,44.65
2019-02-12T12:06:55.983Z,45.46
2019-02-12T12:07:55.986Z,44.89
2019-02-12T12:08:56.018Z,45.71
2019-02-12T12:09:55.938Z,42.75
2019-02-12T12:10:56.023Z,37.24
2019-02-12T12:11:55.917Z,34.58
2019-02-12T12:12:55.912Z,31.86
2019-02-12T12:13:55.912Z,31.41
2019-02-12T12:14:55.916Z,30.35
2019-02-12T12:15:55.875Z,28.59
2019-02-12T12:16:55.947Z,27.58
2019-02-12T12:17:55.847Z,27.08
2019-02-12T12:18:55.853Z,26.76
2019-02-12T12:19:55.879Z,25.85
2019-02-12T12:20:55.858Z,25.85
2019-02-12T12:21:55.812Z,26.26
2019-02-12T12:22:55.797Z,25.63
2019-02-12T12:23:56.323Z,25.32
2019-02-12T12:24:55.791Z,25.30
2019-02-12T12:25:55.893Z,24.40
2019-02-12T12:26:55.763Z,24.32
2019-02-12T12:27:55.778Z,25.13
2019-02-12T12:28:55.815Z,23.91
2019-02-12T12:29:55.725Z,24.20
2019-02-12T12:30:55.722Z,24.01
2019-02-12T12:31:55.759Z,24.22
2019-02-12T12:32:56.519Z,25.05
2019-02-12T12:33:55.668Z,25.95
2019-02-12T12:34:59.003Z,25.54
2019-02-12T12:35:55.671Z,25.21
2019-02-12T12:36:55.644Z,24.39
2019-02-12T12:37:55.768Z,24.09
2019-02-12T12:38:55.614Z,25.03
2019-02-12T12:39:55.618Z,26.06
2019-02-12T12:40:55.599Z,25.85
2019-02-12T12:41:55.586Z,25.87
2019-02-12T12:42:55.589Z,25.85
2019-02-12T12:43:55.632Z,25.73
2019-02-12T12:44:56.227Z,26.64
2019-02-12T12:45:55.557Z,28.55
2019-02-12T12:46:55.555Z,28.32
2019-02-12T12:47:55.535Z,31.02
2019-02-12T12:48:55.610Z,32.11
2019-02-12T12:49:55.507Z,33.72
2019-02-12T12:50:55.508Z,35.80
2019-02-12T12:51:55.561Z,34.71